Time;durP1;ratioP1;P1;durP2;ratioP2;P2;SDS_P1;SDS_P2;PMS_P1;PMS_P2;Temp;Humidity;BMP_temperature;BMP_pressure;BME280_temperature;BME280_humidity;BME280_pressure;Samples;Min_cycle;Max_cycle;Signal;HPM_P1;HPM_P2
2024/03/01 00:01:13;;;;;;;15.68;11.13;;;;;;;;;;4890741;29;20068;-77
2024/03/01 00:03:40;;;;;;;19.63;12.50;;;;;;;;;;4885826;29;20055;-78
2024/03/01 00:06:07;;;;;;;18.45;12.00;;;;;;;;;;4894024;29;20040;-77
2024/03/01 00:08:33;;;;;;;14.93;12.13;;;;;;;;;;4892065;29;20127;-79
2024/03/01 00:11:00;;;;;;;12.52;11.27;;;;;;;;;;4882393;29;20071;-78
2024/03/01 00:13:27;;;;;;;13.40;11.02;;;;;;;;;;4880214;29;20044;-80
2024/03/01 00:15:55;;;;;;;17.80;12.25;;;;;;;;;;4889531;29;20509;-79
2024/03/01 00:18:21;;;;;;;16.70;11.90;;;;;;;;;;4890076;29;20557;-79
2024/03/01 00:20:47;;;;;;;12.07;9.77;;;;;;;;;;4892842;29;20049;-78
2024/03/01 00:23:13;;;;;;;10.57;7.70;;;;;;;;;;4886231;29;20618;-78
2024/03/01 00:25:40;;;;;;;13.45;10.57;;;;;;;;;;4892717;29;20578;-77
2024/03/01 00:28:06;;;;;;;22.75;11.75;;;;;;;;;;4892019;29;20037;-78
2024/03/01 00:30:31;;;;;;;10.00;6.68;;;;;;;;;;4889053;29;20040;-77
2024/03/01 00:32:58;;;;;;;19.17;12.13;;;;;;;;;;4890608;29;20051;-77
2024/03/01 00:35:24;;;;;;;21.17;12.40;;;;;;;;;;4891155;29;20033;-79
2024/03/01 00:37:51;;;;;;;19.85;13.50;;;;;;;;;;4899488;29;20069;-79
2024/03/01 00:40:17;;;;;;;21.98;14.55;;;;;;;;;;4904660;29;20036;-78
2024/03/01 00:42:43;;;;;;;24.90;14.38;;;;;;;;;;4898056;29;20045;-78
2024/03/01 00:45:09;;;;;;;18.65;13.88;;;;;;;;;;4895657;29;20125;-79
2024/03/01 00:47:42;;;;;;;19.02;12.93;;;;;;;;;;4876415;29;20045;-79
2024/03/01 00:50:08;;;;;;;21.30;12.65;;;;;;;;;;4892593;29;20055;-77
2024/03/01 00:52:34;;;;;;;11.20;8.93;;;;;;;;;;4880301;29;20445;-79
2024/03/01 00:55:00;;;;;;;14.25;11.00;;;;;;;;;;4883357;29;20076;-78
2024/03/01 00:57:26;;;;;;;19.63;12.02;;;;;;;;;;4901582;29;20041;-80
2024/03/01 00:59:51;;;;;;;21.52;12.93;;;;;;;;;;4893837;29;20041;-80
2024/03/01 01:02:17;;;;;;;21.88;15.15;;;;;;;;;;4904486;29;20040;-79
2024/03/01 01:04:43;;;;;;;18.10;12.90;;;;;;;;;;4877071;29;20045;-79
2024/03/01 01:07:09;;;;;;;24.63;14.85;;;;;;;;;;4866530;29;20044;-79
2024/03/01 01:09:35;;;;;;;20.08;14.48;;;;;;;;;;4894274;29;20047;-79
2024/03/01 01:12:00;;;;;;;18.67;13.95;;;;;;;;;;4894495;29;20037;-79
2024/03/01 01:14:26;;;;;;;19.80;13.38;;;;;;;;;;4873889;29;20112;-79
2024/03/01 01:16:52;;;;;;;20.95;14.65;;;;;;;;;;4882018;29;20037;-79
2024/03/01 01:19:18;;;;;;;19.33;13.65;;;;;;;;;;4879871;29;20036;-79
2024/03/01 01:21:44;;;;;;;21.98;12.82;;;;;;;;;;4884571;29;20037;-78
2024/03/01 01:24:10;;;;;;;15.65;11.10;;;;;;;;;;4877009;29;20122;-79
2024/03/01 01:26:36;;;;;;;15.65;11.98;;;;;;;;;;4893235;29;20474;-79
2024/03/01 01:29:02;;;;;;;18.83;12.13;;;;;;;;;;4902673;29;20036;-79
2024/03/01 01:31:28;;;;;;;17.45;10.68;;;;;;;;;;4884074;29;20044;-78
2024/03/01 01:33:54;;;;;;;14.85;12.57;;;;;;;;;;4886022;29;20033;-78
2024/03/01 01:36:20;;;;;;;17.75;12.57;;;;;;;;;;4894275;29;20045;-78
2024/03/01 01:38:46;;;;;;;19.63;12.68;;;;;;;;;;4894408;29;20081;-79
2024/03/01 01:41:11;;;;;;;19.52;11.88;;;;;;;;;;4895261;29;20100;-79
2024/03/01 01:43:42;;;;;;;20.73;12.40;;;;;;;;;;4883511;29;20048;-79
2024/03/01 01:46:11;;;;;;;15.52;11.77;;;;;;;;;;4890156;29;20040;-79
2024/03/01 01:48:37;;;;;;;24.50;12.77;;;;;;;;;;4898901;29;20101;-79
2024/03/01 01:51:03;;;;;;;23.05;13.10;;;;;;;;;;4906129;29;20045;-79
2024/03/01 01:53:29;;;;;;;18.67;13.30;;;;;;;;;;4903854;29;20049;-79
2024/03/01 01:55:55;;;;;;;16.92;12.25;;;;;;;;;;4898887;29;20029;-79
2024/03/01 01:58:21;;;;;;;22.92;12.68;;;;;;;;;;4903377;29;20036;-79
2024/03/01 02:00:47;;;;;;;17.45;12.25;;;;;;;;;;4895176;29;20590;-78
2024/03/01 02:03:13;;;;;;;14.57;12.27;;;;;;;;;;4893419;29;20041;-79
2024/03/01 02:05:39;;;;;;;21.60;13.02;;;;;;;;;;4895140;29;20040;-80
2024/03/01 02:08:06;;;;;;;19.60;12.05;;;;;;;;;;4891799;29;20193;-79
2024/03/01 02:10:32;;;;;;;21.52;12.45;;;;;;;;;;4894772;29;20545;-79
2024/03/01 02:13:00;;;;;;;16.92;12.25;;;;;;;;;;4877120;29;20240;-78
2024/03/01 02:15:27;;;;;;;17.80;12.18;;;;;;;;;;4898757;29;20038;-78
2024/03/01 02:17:54;;;;;;;16.48;12.23;;;;;;;;;;4873734;29;20124;-77
2024/03/01 02:20:20;;;;;;;15.90;10.75;;;;;;;;;;4891024;29;20564;-78
2024/03/01 02:22:52;;;;;;;19.63;12.02;;;;;;;;;;4891652;29;20044;-78
2024/03/01 02:25:18;;;;;;;18.40;11.27;;;;;;;;;;4886890;29;20044;-78
2024/03/01 02:27:45;;;;;;;15.88;12.63;;;;;;;;;;4887024;29;20037;-76
2024/03/01 02:30:11;;;;;;;22.73;11.73;;;;;;;;;;4886592;29;20040;-78
2024/03/01 02:32:37;;;;;;;20.17;12.85;;;;;;;;;;4891137;29;20032;-75
2024/03/01 02:35:03;;;;;;;18.92;12.50;;;;;;;;;;4883203;29;20047;-78
2024/03/01 02:37:29;;;;;;;17.02;12.35;;;;;;;;;;4886776;29;20037;-77
2024/03/01 02:39:55;;;;;;;23.17;13.13;;;;;;;;;;4887607;29;20096;-78
2024/03/01 02:42:21;;;;;;;16.92;12.55;;;;;;;;;;4887483;29;20037;-79
2024/03/01 02:44:46;;;;;;;17.40;12.65;;;;;;;;;;4886999;29;20658;-78
2024/03/01 02:47:12;;;;;;;22.77;12.93;;;;;;;;;;4889031;29;20037;-78
2024/03/01 02:49:38;;;;;;;18.17;13.75;;;;;;;;;;4884554;29;20035;-77
2024/03/01 02:52:05;;;;;;;20.85;15.18;;;;;;;;;;4872509;29;20032;-79
2024/03/01 02:54:31;;;;;;;22.70;13.82;;;;;;;;;;4881831;29;20051;-78
2024/03/01 02:56:56;;;;;;;18.88;13.63;;;;;;;;;;4888418;29;20036;-77
2024/03/01 02:59:22;;;;;;;21.23;13.98;;;;;;;;;;4888062;29;20033;-79
2024/03/01 03:01:48;;;;;;;22.70;14.55;;;;;;;;;;4892460;29;20053;-78
2024/03/01 03:04:14;;;;;;;21.20;13.80;;;;;;;;;;4889739;29;20048;-79
2024/03/01 03:06:40;;;;;;;27.00;14.25;;;;;;;;;;4888450;29;20123;-77
2024/03/01 03:09:09;;;;;;;22.08;14.57;;;;;;;;;;4876688;29;20484;-78
2024/03/01 03:11:35;;;;;;;18.40;12.48;;;;;;;;;;4865898;29;20041;-78
2024/03/01 03:14:02;;;;;;;22.80;13.80;;;;;;;;;;4893215;29;20044;-79
2024/03/01 03:16:28;;;;;;;15.63;13.43;;;;;;;;;;4887520;29;20037;-78
2024/03/01 03:18:54;;;;;;;23.40;14.15;;;;;;;;;;4887499;29;20060;-79
2024/03/01 03:21:20;;;;;;;26.10;15.23;;;;;;;;;;4887002;29;20068;-79
2024/03/01 03:23:45;;;;;;;20.40;13.35;;;;;;;;;;4887526;29;20469;-78
2024/03/01 03:26:11;;;;;;;16.70;13.40;;;;;;;;;;4882990;29;20062;-76
2024/03/01 03:28:37;;;;;;;18.92;13.57;;;;;;;;;;4883091;29;20626;-77
2024/03/01 03:31:03;;;;;;;19.83;12.88;;;;;;;;;;4889029;29;20032;-77
2024/03/01 03:33:30;;;;;;;22.52;13.68;;;;;;;;;;4887970;29;20072;-77
2024/03/01 03:35:56;;;;;;;23.30;13.68;;;;;;;;;;4882920;29;20132;-77
2024/03/01 03:38:21;;;;;;;18.50;14.10;;;;;;;;;;4861253;29;20659;-77
2024/03/01 03:40:47;;;;;;;20.48;14.10;;;;;;;;;;4892421;29;20032;-76
2024/03/01 03:43:13;;;;;;;25.08;13.95;;;;;;;;;;4885108;29;20040;-77
2024/03/01 03:45:39;;;;;;;23.25;14.90;;;;;;;;;;4884296;29;20045;-76
2024/03/01 03:48:05;;;;;;;21.55;15.27;;;;;;;;;;4894389;29;20039;-77
2024/03/01 03:50:31;;;;;;;27.27;17.55;;;;;;;;;;4894511;29;20033;-76
2024/03/01 03:52:57;;;;;;;33.28;18.80;;;;;;;;;;4888781;29;20037;-76
2024/03/01 03:55:23;;;;;;;37.47;19.77;;;;;;;;;;4861865;29;20489;-77
2024/03/01 03:57:49;;;;;;;29.23;19.48;;;;;;;;;;4888892;29;20442;-76
2024/03/01 04:00:16;;;;;;;31.00;19.35;;;;;;;;;;4889063;29;20473;-76
2024/03/01 04:02:43;;;;;;;36.45;20.58;;;;;;;;;;4888003;29;20037;-76
2024/03/01 04:05:09;;;;;;;43.28;22.25;;;;;;;;;;4886024;29;20045;-77
2024/03/01 04:07:35;;;;;;;40.63;22.33;;;;;;;;;;4887901;29;20039;-76
2024/03/01 04:10:01;;;;;;;35.88;20.60;;;;;;;;;;4890325;29;20135;-77
2024/03/01 04:12:27;;;;;;;38.35;23.25;;;;;;;;;;4870982;29;20136;-76
2024/03/01 04:14:53;;;;;;;36.67;20.52;;;;;;;;;;4887184;29;20044;-75
2024/03/01 04:17:19;;;;;;;32.90;20.02;;;;;;;;;;4888434;29;20413;-75
2024/03/01 04:19:45;;;;;;;36.95;20.00;;;;;;;;;;4886350;29;20037;-74
2024/03/01 04:22:13;;;;;;;39.65;21.08;;;;;;;;;;4888556;29;20151;-74
2024/03/01 04:24:39;;;;;;;18.83;13.07;;;;;;;;;;4885704;29;20080;-75
2024/03/01 04:27:05;;;;;;;31.45;19.10;;;;;;;;;;4891320;29;20033;-75
2024/03/01 04:29:30;;;;;;;34.17;19.25;;;;;;;;;;4887173;29;20036;-79
2024/03/01 04:31:56;;;;;;;28.20;19.10;;;;;;;;;;4893964;29;20049;-79
2024/03/01 04:34:22;;;;;;;24.95;17.23;;;;;;;;;;4887954;29;20048;-79
2024/03/01 04:36:48;;;;;;;27.95;19.00;;;;;;;;;;4884061;29;20535;-77
2024/03/01 04:39:14;;;;;;;25.45;17.70;;;;;;;;;;4891164;29;20038;-80
2024/03/01 04:41:40;;;;;;;27.02;17.08;;;;;;;;;;4886468;29;20037;-79
2024/03/01 04:44:06;;;;;;;28.58;17.45;;;;;;;;;;4885098;29;20052;-78
2024/03/01 04:46:32;;;;;;;28.02;16.55;;;;;;;;;;4887342;29;20044;-75
2024/03/01 04:48:58;;;;;;;26.23;15.60;;;;;;;;;;4887832;29;20043;-74
2024/03/01 04:51:24;;;;;;;26.27;15.48;;;;;;;;;;4886034;29;20028;-75
2024/03/01 04:53:50;;;;;;;24.92;16.20;;;;;;;;;;4886237;29;20060;-74
2024/03/01 04:56:19;;;;;;;26.80;17.52;;;;;;;;;;4895586;29;20092;-80
2024/03/01 04:58:45;;;;;;;29.33;17.83;;;;;;;;;;4895588;29;20532;-79
2024/03/01 05:01:10;;;;;;;34.95;19.15;;;;;;;;;;4901762;29;20065;-81
2024/03/01 05:03:36;;;;;;;24.52;17.40;;;;;;;;;;4889203;29;20517;-81
2024/03/01 05:06:05;;;;;;;27.90;17.70;;;;;;;;;;4895956;29;20049;-79
2024/03/01 05:08:34;;;;;;;30.63;17.75;;;;;;;;;;4895186;29;20029;-80
2024/03/01 05:11:00;;;;;;;29.45;18.63;;;;;;;;;;4901176;29;20121;-80
2024/03/01 05:13:26;;;;;;;29.08;18.50;;;;;;;;;;4892892;29;20068;-78
2024/03/01 05:15:52;;;;;;;24.48;17.58;;;;;;;;;;4873198;29;20033;-80
2024/03/01 05:18:18;;;;;;;25.88;17.85;;;;;;;;;;4879715;29;20408;-79
2024/03/01 05:20:44;;;;;;;22.02;17.45;;;;;;;;;;4874658;29;20106;-79
2024/03/01 05:23:10;;;;;;;31.13;19.25;;;;;;;;;;4885203;29;20422;-81
2024/03/01 05:25:37;;;;;;;37.63;21.77;;;;;;;;;;4866772;29;20086;-78
2024/03/01 05:28:03;;;;;;;32.13;20.40;;;;;;;;;;4897197;29;20056;-77
2024/03/01 05:30:31;;;;;;;30.20;19.95;;;;;;;;;;4898193;29;20049;-79
2024/03/01 05:32:57;;;;;;;36.47;22.50;;;;;;;;;;4892743;29;20032;-77
2024/03/01 05:35:22;;;;;;;39.33;24.88;;;;;;;;;;4893140;29;20040;-78
2024/03/01 05:37:48;;;;;;;145.65;77.90;;;;;;;;;;4890281;29;20044;-79
2024/03/01 05:40:14;;;;;;;41.15;22.35;;;;;;;;;;4896839;29;20574;-78
2024/03/01 05:42:41;;;;;;;32.92;19.17;;;;;;;;;;4897337;29;20048;-77
2024/03/01 05:45:10;;;;;;;35.97;22.20;;;;;;;;;;4893020;29;20081;-79
2024/03/01 05:47:36;;;;;;;31.02;20.75;;;;;;;;;;4900477;29;20028;-81
2024/03/01 05:50:05;;;;;;;33.75;20.50;;;;;;;;;;4889125;29;20013;-80
2024/03/01 05:52:31;;;;;;;30.27;20.27;;;;;;;;;;4907989;29;20032;-77
2024/03/01 05:54:57;;;;;;;31.38;18.83;;;;;;;;;;4901651;29;20041;-78
2024/03/01 05:57:23;;;;;;;37.45;22.10;;;;;;;;;;4878189;29;20584;-78
2024/03/01 05:59:50;;;;;;;44.17;23.02;;;;;;;;;;4892501;29;20549;-78
2024/03/01 06:02:16;;;;;;;33.40;20.20;;;;;;;;;;4890587;29;20052;-79
2024/03/01 06:04:42;;;;;;;33.63;19.75;;;;;;;;;;4876342;29;20055;-79
2024/03/01 06:07:08;;;;;;;33.33;21.48;;;;;;;;;;4888545;29;20036;-76
2024/03/01 06:09:34;;;;;;;29.65;21.35;;;;;;;;;;4884060;29;20102;-78
2024/03/01 06:12:00;;;;;;;39.35;23.73;;;;;;;;;;4886859;29;20040;-79
2024/03/01 06:14:26;;;;;;;35.33;23.58;;;;;;;;;;4882459;29;20065;-78
2024/03/01 06:16:52;;;;;;;40.83;24.50;;;;;;;;;;4884864;29;20083;-76
2024/03/01 06:19:18;;;;;;;40.08;25.00;;;;;;;;;;4884169;29;20459;-76
2024/03/01 06:21:44;;;;;;;33.22;22.02;;;;;;;;;;4888310;29;20063;-75
2024/03/01 06:24:10;;;;;;;38.45;21.15;;;;;;;;;;4885927;29;20066;-78
2024/03/01 06:26:35;;;;;;;27.35;18.75;;;;;;;;;;4888391;29;20040;-80
2024/03/01 06:29:01;;;;;;;35.55;20.65;;;;;;;;;;4890476;29;20036;-80
2024/03/01 06:31:27;;;;;;;33.00;19.65;;;;;;;;;;4888859;29;20120;-80
2024/03/01 06:33:53;;;;;;;38.75;21.33;;;;;;;;;;4895337;29;20056;-73
2024/03/01 06:36:19;;;;;;;37.85;20.92;;;;;;;;;;4891828;29;20047;-78
2024/03/01 06:38:44;;;;;;;32.88;21.48;;;;;;;;;;4869003;29;20092;-74
2024/03/01 06:41:10;;;;;;;31.40;20.00;;;;;;;;;;4891650;29;20055;-79
2024/03/01 06:43:36;;;;;;;36.95;22.20;;;;;;;;;;4896029;29;20104;-79
2024/03/01 06:46:07;;;;;;;34.60;20.65;;;;;;;;;;4888586;29;20077;-81
2024/03/01 06:48:33;;;;;;;33.75;20.40;;;;;;;;;;4898936;29;20025;-78
2024/03/01 06:50:59;;;;;;;30.45;20.75;;;;;;;;;;4891387;29;20036;-80
2024/03/01 06:53:26;;;;;;;28.88;19.00;;;;;;;;;;4888087;29;20067;-81
2024/03/01 06:55:55;;;;;;;35.17;21.92;;;;;;;;;;4888160;29;20111;-81
2024/03/01 06:58:21;;;;;;;35.72;20.48;;;;;;;;;;4892491;29;20147;-79
2024/03/01 07:00:47;;;;;;;30.60;20.73;;;;;;;;;;4885775;29;20104;-81
2024/03/01 07:03:14;;;;;;;36.38;22.33;;;;;;;;;;4888913;29;20044;-76
2024/03/01 07:05:40;;;;;;;35.90;21.08;;;;;;;;;;4884612;29;20041;-77
2024/03/01 07:08:24;;;;;;;31.45;21.42;;;;;;;;;;4885923;29;20506;-76
2024/03/01 07:10:52;;;;;;;28.15;19.58;;;;;;;;;;4888626;29;20505;-74
2024/03/01 07:13:18;;;;;;;35.47;22.65;;;;;;;;;;4879738;29;20135;-75
2024/03/01 07:15:45;;;;;;;35.15;21.88;;;;;;;;;;4886339;29;20517;-74
2024/03/01 07:18:11;;;;;;;32.53;22.20;;;;;;;;;;4891160;29;20047;-76
2024/03/01 07:20:37;;;;;;;39.22;23.88;;;;;;;;;;4886513;29;20044;-76
2024/03/01 07:23:03;;;;;;;37.25;22.63;;;;;;;;;;4891575;29;20067;-74
2024/03/01 07:25:29;;;;;;;31.67;20.80;;;;;;;;;;4893429;29;20529;-76
2024/03/01 07:27:55;;;;;;;34.17;21.30;;;;;;;;;;4883501;29;20080;-76
2024/03/01 07:30:21;;;;;;;35.17;23.13;;;;;;;;;;4865871;29;20072;-75
2024/03/01 07:32:47;;;;;;;35.10;22.65;;;;;;;;;;4893720;29;20501;-75
2024/03/01 07:35:13;;;;;;;35.22;22.33;;;;;;;;;;4891985;29;20498;-75
2024/03/01 07:37:39;;;;;;;37.08;21.65;;;;;;;;;;4887998;29;20048;-76
2024/03/01 07:40:05;;;;;;;34.67;22.27;;;;;;;;;;4878793;29;20125;-76
2024/03/01 07:42:31;;;;;;;38.00;23.73;;;;;;;;;;4890948;29;20045;-78
2024/03/01 07:44:57;;;;;;;37.22;22.63;;;;;;;;;;4885543;29;20052;-77
2024/03/01 07:47:26;;;;;;;31.92;22.55;;;;;;;;;;4885582;29;20150;-76
2024/03/01 07:49:52;;;;;;;31.95;20.60;;;;;;;;;;4875438;29;20048;-76
2024/03/01 07:52:18;;;;;;;36.75;22.35;;;;;;;;;;4888436;29;20045;-76
2024/03/01 07:54:44;;;;;;;40.25;24.35;;;;;;;;;;4887387;29;20049;-78
2024/03/01 07:57:10;;;;;;;40.28;25.90;;;;;;;;;;4887087;29;20045;-77
2024/03/01 07:59:36;;;;;;;37.38;24.35;;;;;;;;;;4886136;29;20041;-77
2024/03/01 08:02:01;;;;;;;35.88;23.80;;;;;;;;;;4887376;29;20072;-77
2024/03/01 08:04:27;;;;;;;35.65;22.67;;;;;;;;;;4893694;29;20055;-76
2024/03/01 08:06:53;;;;;;;37.22;23.88;;;;;;;;;;4891741;29;20035;-77
2024/03/01 08:09:22;;;;;;;44.75;25.02;;;;;;;;;;4884956;29;20510;-77
2024/03/01 08:11:48;;;;;;;36.28;23.45;;;;;;;;;;4889100;29;20127;-77
2024/03/01 08:14:27;;;;;;;37.88;23.88;;;;;;;;;;4885886;29;20385;-77
2024/03/01 08:16:53;;;;;;;33.03;22.95;;;;;;;;;;4893045;29;20044;-77
2024/03/01 08:19:23;;;;;;;36.13;23.42;;;;;;;;;;4887528;29;20143;-77
2024/03/01 08:21:49;;;;;;;35.10;23.40;;;;;;;;;;4888972;29;20067;-76
2024/03/01 08:24:15;;;;;;;35.92;25.15;;;;;;;;;;4887063;29;20057;-77
2024/03/01 08:26:41;;;;;;;34.28;23.73;;;;;;;;;;4888186;29;20414;-76
2024/03/01 08:29:07;;;;;;;36.90;23.85;;;;;;;;;;4888642;29;20040;-77
2024/03/01 08:31:34;;;;;;;42.65;28.42;;;;;;;;;;4887288;29;20117;-77
2024/03/01 08:34:06;;;;;;;54.42;31.67;;;;;;;;;;4884609;29;20071;-76
2024/03/01 08:36:32;;;;;;;43.17;28.92;;;;;;;;;;4886972;29;20037;-76
2024/03/01 08:39:10;;;;;;;45.53;28.70;;;;;;;;;;4888191;29;20027;-77
2024/03/01 08:41:36;;;;;;;41.03;26.25;;;;;;;;;;4885792;29;20032;-77
2024/03/01 08:44:04;;;;;;;41.15;30.02;;;;;;;;;;4886937;29;20110;-76
2024/03/01 08:46:30;;;;;;;48.63;31.10;;;;;;;;;;4885205;29;20080;-77
2024/03/01 08:48:57;;;;;;;52.50;31.60;;;;;;;;;;4888070;29;20036;-77
2024/03/01 08:51:24;;;;;;;50.72;30.02;;;;;;;;;;4887121;29;20458;-76
2024/03/01 08:53:50;;;;;;;52.70;27.98;;;;;;;;;;4873266;29;20056;-76
2024/03/01 08:56:20;;;;;;;37.13;24.23;;;;;;;;;;4891865;29;20036;-77
2024/03/01 08:58:46;;;;;;;42.00;25.00;;;;;;;;;;4889314;29;20037;-77
2024/03/01 09:01:31;;;;;;;39.70;25.52;;;;;;;;;;4890790;29;20063;-78
2024/03/01 09:03:58;;;;;;;37.80;23.27;;;;;;;;;;4887988;29;20060;-78
2024/03/01 09:06:23;;;;;;;38.28;23.38;;;;;;;;;;4871020;29;20418;-78
2024/03/01 09:08:50;;;;;;;36.22;23.63;;;;;;;;;;4889986;29;20040;-77
2024/03/01 09:11:17;;;;;;;42.15;20.73;;;;;;;;;;4880765;29;20123;-78
2024/03/01 09:13:44;;;;;;;35.22;20.15;;;;;;;;;;4890289;29;20044;-77
2024/03/01 09:16:16;;;;;;;29.42;19.90;;;;;;;;;;4875604;29;20028;-76
2024/03/01 09:18:44;;;;;;;39.85;22.38;;;;;;;;;;4887951;29;20037;-77
2024/03/01 09:21:29;;;;;;;37.55;24.15;;;;;;;;;;4888522;29;20091;-77
2024/03/01 09:23:55;;;;;;;45.35;24.27;;;;;;;;;;4906618;29;20072;-78
2024/03/01 09:26:22;;;;;;;39.83;24.48;;;;;;;;;;4887378;29;20060;-78
2024/03/01 09:28:47;;;;;;;38.92;24.17;;;;;;;;;;4887334;29;20041;-77
2024/03/01 09:31:13;;;;;;;42.17;25.42;;;;;;;;;;4886731;29;20036;-78
2024/03/01 09:33:40;;;;;;;41.90;25.17;;;;;;;;;;4886286;29;20220;-78
2024/03/01 09:36:07;;;;;;;40.88;24.65;;;;;;;;;;4888286;29;20029;-79
2024/03/01 09:38:33;;;;;;;49.72;25.10;;;;;;;;;;4886243;29;20036;-78
2024/03/01 09:41:30;;;;;;;41.20;22.88;;;;;;;;;;4884430;29;20037;-78
2024/03/01 09:44:06;;;;;;;40.03;25.20;;;;;;;;;;4875487;29;20593;-79
2024/03/01 09:46:44;;;;;;;40.13;25.52;;;;;;;;;;4883663;29;20091;-78
2024/03/01 09:49:18;;;;;;;36.97;24.83;;;;;;;;;;4887479;29;20044;-78
2024/03/01 09:52:05;;;;;;;34.45;24.23;;;;;;;;;;4888459;29;20055;-78
2024/03/01 09:54:36;;;;;;;38.40;21.70;;;;;;;;;;4883910;29;20063;-77
2024/03/01 09:57:02;;;;;;;;;;;;;;;;;;4888558;29;20036;-78
2024/03/01 09:59:35;;;;;;;30.10;19.15;;;;;;;;;;4884994;29;19963;-78
2024/03/01 10:02:13;;;;;;;37.88;24.35;;;;;;;;;;4886845;29;20067;-78
2024/03/01 10:04:40;;;;;;;29.55;20.48;;;;;;;;;;4887961;29;20131;-78
2024/03/01 10:07:24;;;;;;;32.33;20.77;;;;;;;;;;4885506;29;20040;-78
2024/03/01 10:10:02;;;;;;;28.30;13.13;;;;;;;;;;4887328;29;20128;-79
2024/03/01 10:12:40;;;;;;;40.00;24.25;;;;;;;;;;4886123;29;20037;-78
2024/03/01 10:15:14;;;;;;;38.00;20.08;;;;;;;;;;4871500;29;20040;-78
2024/03/01 10:17:49;;;;;;;44.92;23.95;;;;;;;;;;4884609;29;20510;-78
2024/03/01 10:20:33;;;;;;;26.55;19.20;;;;;;;;;;4887075;29;20421;-78
2024/03/01 10:23:17;;;;;;;32.03;21.63;;;;;;;;;;4887060;29;20033;-77
2024/03/01 10:26:04;;;;;;;33.78;21.80;;;;;;;;;;4886136;29;20051;-78
2024/03/01 10:28:31;;;;;;;39.40;23.33;;;;;;;;;;4885425;29;20038;-77
2024/03/01 10:31:10;;;;;;;30.88;20.17;;;;;;;;;;4886859;29;20047;-78
2024/03/01 10:33:43;;;;;;;39.95;22.13;;;;;;;;;;4885427;29;20041;-77
2024/03/01 10:36:14;;;;;;;35.72;22.88;;;;;;;;;;4887211;29;20119;-78
2024/03/01 10:38:50;;;;;;;42.30;22.05;;;;;;;;;;4855935;29;20777;-77
2024/03/01 10:41:23;;;;;;;45.25;27.20;;;;;;;;;;4873461;29;20044;-78
2024/03/01 10:43:56;;;;;;;50.13;25.27;;;;;;;;;;4885617;29;20053;-77
2024/03/01 10:47:00;;;;;;;42.20;24.08;;;;;;;;;;4885070;29;20041;-77
2024/03/01 10:49:34;;;;;;;34.47;21.98;;;;;;;;;;4888191;29;20161;-78
2024/03/01 10:52:16;;;;;;;30.95;19.70;;;;;;;;;;4884921;29;20040;-77
2024/03/01 10:54:47;;;;;;;27.80;18.52;;;;;;;;;;4884729;29;20134;-79
2024/03/01 10:57:13;;;;;;;22.65;14.07;;;;;;;;;;4892140;29;20045;-78
2024/03/01 10:59:46;;;;;;;38.72;22.15;;;;;;;;;;4893446;29;20101;-78
2024/03/01 11:02:14;;;;;;;33.08;20.52;;;;;;;;;;4892752;29;20048;-79
2024/03/01 11:04:44;;;;;;;53.45;25.67;;;;;;;;;;4895325;29;20053;-78
2024/03/01 11:07:22;;;;;;;35.15;20.45;;;;;;;;;;4902687;29;20647;-77
2024/03/01 11:09:51;;;;;;;14.98;11.82;;;;;;;;;;4899651;29;20061;-78
2024/03/01 11:12:19;;;;;;;34.83;20.55;;;;;;;;;;4901474;29;20032;-78
2024/03/01 11:14:51;;;;;;;45.55;24.60;;;;;;;;;;4892525;29;20041;-77
2024/03/01 11:17:17;;;;;;;37.58;23.10;;;;;;;;;;4908890;29;20048;-78
2024/03/01 11:19:43;;;;;;;40.03;26.13;;;;;;;;;;4886962;29;20123;-78
2024/03/01 11:22:19;;;;;;;38.92;22.77;;;;;;;;;;4891257;29;20040;-76
2024/03/01 11:24:48;;;;;;;38.22;22.95;;;;;;;;;;4892444;29;20150;-78
2024/03/01 11:27:14;;;;;;;33.70;23.17;;;;;;;;;;4893601;29;20073;-78
2024/03/01 11:29:49;;;;;;;32.75;18.38;;;;;;;;;;4890281;29;20044;-77
2024/03/01 11:32:19;;;;;;;31.75;20.17;;;;;;;;;;4893331;29;20112;-78
2024/03/01 11:34:48;;;;;;;33.95;20.48;;;;;;;;;;4872900;29;20267;-78
2024/03/01 11:37:36;;;;;;;39.55;22.80;;;;;;;;;;4875166;29;20030;-78
2024/03/01 11:40:03;;;;;;;25.77;17.58;;;;;;;;;;4889434;29;20549;-78
2024/03/01 11:42:29;;;;;;;35.17;21.65;;;;;;;;;;4873877;29;20034;-77
2024/03/01 11:44:56;;;;;;;35.00;21.15;;;;;;;;;;4890238;29;20490;-77
2024/03/01 11:47:37;;;;;;;33.65;20.50;;;;;;;;;;4874127;29;20029;-78
2024/03/01 11:50:26;;;;;;;29.08;18.60;;;;;;;;;;4890263;29;20036;-78
2024/03/01 11:53:02;;;;;;;38.45;21.90;;;;;;;;;;4892858;29;20043;-77
2024/03/01 11:55:34;;;;;;;33.67;21.85;;;;;;;;;;4889092;29;20437;-78
2024/03/01 11:58:03;;;;;;;37.85;22.92;;;;;;;;;;4888872;29;20056;-78
2024/03/01 12:00:41;;;;;;;38.05;23.65;;;;;;;;;;4888032;29;20139;-77
2024/03/01 12:03:11;;;;;;;40.00;21.98;;;;;;;;;;4874239;29;20077;-80
2024/03/01 12:05:49;;;;;;;46.47;27.33;;;;;;;;;;4891323;29;20198;-78
2024/03/01 12:08:23;;;;;;;35.53;22.13;;;;;;;;;;4888361;29;20040;-78
2024/03/01 12:10:55;;;;;;;36.53;20.80;;;;;;;;;;4893229;29;20132;-77
2024/03/01 12:13:21;;;;;;;33.28;20.83;;;;;;;;;;4890287;29;20033;-78
2024/03/01 12:15:49;;;;;;;32.85;19.85;;;;;;;;;;4893645;29;20622;-78
2024/03/01 12:18:22;;;;;;;40.38;24.05;;;;;;;;;;4891286;29;20182;-79
2024/03/01 12:20:52;;;;;;;42.20;23.95;;;;;;;;;;4878564;29;20043;-76
2024/03/01 12:23:39;;;;;;;41.85;23.92;;;;;;;;;;4890804;29;20421;-77
2024/03/01 12:26:05;;;;;;;39.40;22.52;;;;;;;;;;4867226;29;20057;-79
2024/03/01 12:28:35;;;;;;;40.17;22.65;;;;;;;;;;4875072;29;20037;-76
2024/03/01 12:31:20;;;;;;;35.25;18.60;;;;;;;;;;4891919;29;20032;-77
2024/03/01 12:33:55;;;;;;;30.63;19.63;;;;;;;;;;4888345;29;20044;-78
2024/03/01 12:36:35;;;;;;;35.40;19.63;;;;;;;;;;4893289;29;20124;-77
2024/03/01 12:39:03;;;;;;;38.10;22.02;;;;;;;;;;4877565;29;20048;-78
2024/03/01 12:41:47;;;;;;;39.42;23.17;;;;;;;;;;4891307;29;20052;-77
2024/03/01 12:44:18;;;;;;;54.70;30.60;;;;;;;;;;4885760;29;20056;-77
2024/03/01 12:46:50;;;;;;;40.17;22.13;;;;;;;;;;4888482;29;20044;-77
2024/03/01 12:49:24;;;;;;;32.95;21.27;;;;;;;;;;4889103;29;20047;-77
2024/03/01 12:52:10;;;;;;;31.67;18.63;;;;;;;;;;4886727;29;20065;-76
2024/03/01 12:54:42;;;;;;;29.88;19.10;;;;;;;;;;4861490;29;20048;-77
2024/03/01 12:57:21;;;;;;;23.80;17.25;;;;;;;;;;4887604;29;20032;-76
2024/03/01 12:59:52;;;;;;;25.13;16.77;;;;;;;;;;4886292;29;20053;-77
2024/03/01 13:02:27;;;;;;;23.38;15.73;;;;;;;;;;4888030;29;20044;-76
2024/03/01 13:04:53;;;;;;;30.13;18.67;;;;;;;;;;4870888;29;20406;-77
2024/03/01 13:07:19;;;;;;;31.73;19.25;;;;;;;;;;4887582;29;20040;-77
2024/03/01 13:09:46;;;;;;;27.73;18.20;;;;;;;;;;4888028;29;20048;-77
2024/03/01 13:12:15;;;;;;;28.48;17.92;;;;;;;;;;4889531;29;20036;-77
2024/03/01 13:14:45;;;;;;;27.05;16.90;;;;;;;;;;4887226;29;20048;-77
2024/03/01 13:17:18;;;;;;;29.23;17.15;;;;;;;;;;4870490;29;20064;-77
2024/03/01 13:19:49;;;;;;;24.27;15.18;;;;;;;;;;4890782;29;20063;-77
2024/03/01 13:22:15;;;;;;;;;;;;;;;;;;4888792;29;20054;-78
2024/03/01 13:24:53;;;;;;;30.23;17.92;;;;;;;;;;4884108;29;19927;-77
2024/03/01 13:27:28;;;;;;;37.75;23.52;;;;;;;;;;4889277;29;20461;-77
2024/03/01 13:29:54;;;;;;;49.78;30.05;;;;;;;;;;4888655;29;20044;-78
2024/03/01 13:32:25;;;;;;;54.28;30.52;;;;;;;;;;4875283;29;20054;-78
2024/03/01 13:34:57;;;;;;;48.37;28.03;;;;;;;;;;4889692;29;20124;-76
2024/03/01 13:37:36;;;;;;;47.95;30.23;;;;;;;;;;4888115;29;20397;-77
2024/03/01 13:40:14;;;;;;;50.05;28.10;;;;;;;;;;4885499;29;20081;-77
2024/03/01 13:42:43;;;;;;;50.83;28.10;;;;;;;;;;4877405;29;20063;-78
2024/03/01 13:45:12;;;;;;;51.10;27.20;;;;;;;;;;4887414;29;20425;-78
2024/03/01 13:47:45;;;;;;;46.35;28.15;;;;;;;;;;4891333;29;20035;-78
2024/03/01 13:50:10;;;;;;;47.28;31.05;;;;;;;;;;4861871;29;20433;-78
2024/03/01 13:52:37;;;;;;;43.47;29.13;;;;;;;;;;4890124;29;20040;-78
2024/03/01 13:55:04;;;;;;;45.47;27.50;;;;;;;;;;4885415;29;20051;-77
2024/03/01 14:00:24;;;;;;;54.47;30.50;;;;;;;;;;4885648;29;20084;-76
2024/03/01 14:02:50;;;;;;;52.17;28.63;;;;;;;;;;4888521;29;20037;-77
2024/03/01 14:05:16;;;;;;;47.05;27.75;;;;;;;;;;4890294;29;20060;-79
2024/03/01 14:07:46;;;;;;;49.55;28.60;;;;;;;;;;4890064;29;20033;-79
2024/03/01 14:10:12;;;;;;;46.28;27.40;;;;;;;;;;4873047;29;20087;-78
2024/03/01 14:12:39;;;;;;;38.30;25.17;;;;;;;;;;4886788;29;20095;-77
2024/03/01 14:15:15;;;;;;;41.55;24.75;;;;;;;;;;4885879;29;20132;-81
2024/03/01 14:17:42;;;;;;;49.30;25.13;;;;;;;;;;4894527;29;20036;-78
2024/03/01 14:20:11;;;;;;;38.20;24.30;;;;;;;;;;4887380;29;20063;-77
2024/03/01 14:22:41;;;;;;;45.63;25.83;;;;;;;;;;4888463;29;20354;-78
2024/03/01 14:25:11;;;;;;;39.97;25.33;;;;;;;;;;4890039;29;20082;-80
2024/03/01 14:27:41;;;;;;;47.27;25.40;;;;;;;;;;4894457;29;20035;-79
2024/03/01 14:30:12;;;;;;;44.33;23.30;;;;;;;;;;4892223;29;20588;-79